Time;durP1;ratioP1;P1;durP2;ratioP2;P2;SDS_P1;SDS_P2;PMS_P1;PMS_P2;Temp;Humidity;BMP_temperature;BMP_pressure;BME280_temperature;BME280_humidity;BME280_pressure;Samples;Min_cycle;Max_cycle;Signal;HPM_P1;HPM_P2
2023/08/25 00:00:50;;;;;;;18.33;16.53;;;;;;;;;;5015642;28;20177;-84
2023/08/25 00:03:16;;;;;;;19.00;17.07;;;;;;;;;;5014871;28;20181;-84
2023/08/25 00:05:42;;;;;;;19.90;17.27;;;;;;;;;;5014827;28;20182;-84
2023/08/25 00:08:10;;;;;;;18.90;16.17;;;;;;;;;;5015258;28;20185;-85
2023/08/25 00:10:37;;;;;;;19.43;17.47;;;;;;;;;;5014745;28;20181;-84
2023/08/25 00:13:04;;;;;;;19.93;17.93;;;;;;;;;;4998785;28;20255;-84
2023/08/25 00:15:30;;;;;;;17.57;15.87;;;;;;;;;;5014636;28;20178;-84
2023/08/25 00:17:56;;;;;;;18.83;17.13;;;;;;;;;;4998534;28;20259;-84
2023/08/25 00:20:22;;;;;;;18.57;16.87;;;;;;;;;;4998375;28;20181;-84
2023/08/25 00:22:48;;;;;;;18.83;17.23;;;;;;;;;;4998283;28;20196;-85
2023/08/25 00:25:14;;;;;;;20.17;18.17;;;;;;;;;;5014792;28;20236;-85
2023/08/25 00:27:40;;;;;;;18.77;16.97;;;;;;;;;;4998995;28;20240;-84
2023/08/25 00:30:08;;;;;;;18.43;16.73;;;;;;;;;;5014508;28;20184;-84
2023/08/25 00:32:34;;;;;;;21.67;19.67;;;;;;;;;;4998854;28;20213;-85
2023/08/25 00:35:03;;;;;;;20.17;18.17;;;;;;;;;;4998549;28;20205;-84
2023/08/25 00:37:29;;;;;;;20.63;18.53;;;;;;;;;;4998679;28;20181;-84
2023/08/25 00:39:55;;;;;;;20.87;18.77;;;;;;;;;;4998622;28;20185;-84
2023/08/25 00:42:21;;;;;;;22.40;20.20;;;;;;;;;;4998395;28;20189;-85
2023/08/25 00:44:50;;;;;;;22.90;20.70;;;;;;;;;;5014369;28;20216;-84
2023/08/25 00:47:16;;;;;;;23.63;21.27;;;;;;;;;;5014634;28;20177;-84
2023/08/25 00:49:42;;;;;;;21.23;19.27;;;;;;;;;;5013975;28;20235;-85
2023/08/25 00:52:11;;;;;;;24.87;22.67;;;;;;;;;;5013942;28;20236;-85
2023/08/25 00:54:38;;;;;;;26.47;24.00;;;;;;;;;;5014237;28;20173;-84
2023/08/25 00:57:04;;;;;;;26.80;24.27;;;;;;;;;;5014256;28;20188;-84
2023/08/25 00:59:45;;;;;;;27.50;24.90;;;;;;;;;;5071222;28;20595;-82
2023/08/25 01:02:11;;;;;;;27.40;24.70;;;;;;;;;;5071153;28;20176;-82
2023/08/25 01:04:37;;;;;;;28.37;25.83;;;;;;;;;;5053660;28;20178;-82
2023/08/25 01:07:03;;;;;;;26.70;24.20;;;;;;;;;;5053478;28;20179;-82
2023/08/25 01:09:29;;;;;;;26.23;23.70;;;;;;;;;;5069984;28;20182;-81
2023/08/25 01:12:01;;;;;;;27.57;24.90;;;;;;;;;;5053568;28;20176;-82
2023/08/25 01:14:30;;;;;;;30.33;27.43;;;;;;;;;;5070115;28;20186;-82
2023/08/25 01:17:04;;;;;;;30.60;27.60;;;;;;;;;;5069786;28;20270;-82
2023/08/25 01:19:45;;;;;;;32.63;29.47;;;;;;;;;;5070541;28;20237;-82
2023/08/25 01:22:17;;;;;;;32.17;28.87;;;;;;;;;;5070812;28;20168;-76
2023/08/25 01:24:43;;;;;;;32.80;29.40;;;;;;;;;;5069726;28;20200;-75
2023/08/25 01:27:10;;;;;;;31.53;28.67;;;;;;;;;;5069745;28;20171;-75
2023/08/25 01:29:36;;;;;;;31.87;28.90;;;;;;;;;;5053067;28;20187;-75
2023/08/25 01:32:02;;;;;;;33.43;30.23;;;;;;;;;;5069641;28;20191;-79
2023/08/25 01:34:28;;;;;;;31.63;28.63;;;;;;;;;;5069364;28;20203;-78
2023/08/25 01:37:01;;;;;;;34.57;31.27;;;;;;;;;;5069563;28;20192;-79
2023/08/25 01:39:29;;;;;;;33.63;30.53;;;;;;;;;;5070410;28;20239;-81
2023/08/25 01:42:02;;;;;;;33.77;30.37;;;;;;;;;;5069186;28;20180;-82
2023/08/25 01:44:28;;;;;;;35.00;31.63;;;;;;;;;;5069272;28;20182;-82
2023/08/25 01:46:58;;;;;;;33.83;30.33;;;;;;;;;;5069082;28;20192;-82
2023/08/25 01:49:24;;;;;;;35.77;31.80;;;;;;;;;;5069301;28;20175;-82
2023/08/25 01:51:51;;;;;;;34.63;31.23;;;;;;;;;;5069113;28;20247;-81
2023/08/25 01:54:17;;;;;;;34.43;31.23;;;;;;;;;;5052651;28;20191;-81
2023/08/25 01:56:43;;;;;;;35.90;32.40;;;;;;;;;;5069035;28;20192;-76
2023/08/25 01:59:09;;;;;;;33.90;30.73;;;;;;;;;;5068842;28;20244;-76
2023/08/25 02:01:35;;;;;;;33.37;30.33;;;;;;;;;;5068956;28;20233;-75
2023/08/25 02:04:01;;;;;;;33.90;30.73;;;;;;;;;;5068920;28;20188;-75
2023/08/25 02:06:28;;;;;;;35.33;31.87;;;;;;;;;;5052455;28;20184;-76
2023/08/25 02:08:54;;;;;;;34.60;31.33;;;;;;;;;;5068959;28;20248;-76
2023/08/25 02:11:20;;;;;;;34.47;31.03;;;;;;;;;;5038660;28;20226;-77
2023/08/25 02:13:46;;;;;;;35.13;31.73;;;;;;;;;;5055618;28;20207;-76
2023/08/25 02:16:12;;;;;;;35.17;31.67;;;;;;;;;;5055388;28;20279;-76
2023/08/25 02:18:38;;;;;;;35.10;31.53;;;;;;;;;;5038739;28;20216;-79
2023/08/25 02:21:04;;;;;;;36.90;33.40;;;;;;;;;;5055518;28;20179;-78
2023/08/25 02:23:30;;;;;;;35.63;32.17;;;;;;;;;;5038808;28;20180;-78
2023/08/25 02:25:56;;;;;;;35.30;32.10;;;;;;;;;;5038694;28;20199;-78
2023/08/25 02:28:22;;;;;;;35.40;32.07;;;;;;;;;;5038690;28;20340;-76
2023/08/25 02:30:48;;;;;;;36.33;32.93;;;;;;;;;;5038654;28;20354;-76
2023/08/25 02:33:15;;;;;;;36.17;32.63;;;;;;;;;;5055159;28;20314;-76
2023/08/25 02:35:41;;;;;;;36.07;32.50;;;;;;;;;;5054852;28;20180;-81
2023/08/25 02:38:08;;;;;;;35.73;32.40;;;;;;;;;;5055238;28;20208;-81
2023/08/25 02:40:34;;;;;;;34.53;31.13;;;;;;;;;;5056261;28;20255;-82
2023/08/25 02:43:03;;;;;;;34.00;30.70;;;;;;;;;;5054983;28;20270;-78
2023/08/25 02:45:29;;;;;;;35.00;31.77;;;;;;;;;;5056066;28;20164;-81
2023/08/25 02:47:56;;;;;;;34.53;31.30;;;;;;;;;;5055930;28;20196;-83
2023/08/25 02:50:22;;;;;;;32.03;28.93;;;;;;;;;;5054812;28;20203;-82
2023/08/25 02:52:48;;;;;;;32.77;29.43;;;;;;;;;;5054888;28;20180;-82
2023/08/25 02:55:16;;;;;;;31.50;28.50;;;;;;;;;;5038368;28;20199;-82
2023/08/25 02:57:46;;;;;;;30.60;27.53;;;;;;;;;;5054215;28;20224;-82
2023/08/25 03:00:13;;;;;;;32.93;29.67;;;;;;;;;;5054617;28;20176;-82
2023/08/25 03:02:39;;;;;;;34.00;30.83;;;;;;;;;;5054512;28;20200;-76
2023/08/25 03:05:06;;;;;;;36.97;33.23;;;;;;;;;;5038015;28;20183;-75
2023/08/25 03:07:35;;;;;;;37.23;33.63;;;;;;;;;;5054405;28;20239;-76
2023/08/25 03:10:02;;;;;;;38.63;34.90;;;;;;;;;;5054553;28;20172;-76
2023/08/25 03:12:28;;;;;;;39.93;35.83;;;;;;;;;;5037862;28;20302;-76
2023/08/25 03:14:54;;;;;;;40.30;36.23;;;;;;;;;;5055262;28;20198;-76
2023/08/25 03:17:21;;;;;;;39.10;35.33;;;;;;;;;;5054110;28;20172;-76
2023/08/25 03:19:47;;;;;;;39.30;35.57;;;;;;;;;;5054162;28;20207;-78
2023/08/25 03:22:13;;;;;;;39.97;36.07;;;;;;;;;;5052899;28;20271;-79
2023/08/25 03:24:39;;;;;;;39.63;35.63;;;;;;;;;;5054248;28;20309;-78
2023/08/25 03:27:05;;;;;;;38.23;34.53;;;;;;;;;;5054005;28;20206;-78
2023/08/25 03:29:31;;;;;;;38.10;34.47;;;;;;;;;;5054025;28;20229;-79
2023/08/25 03:31:58;;;;;;;39.30;35.50;;;;;;;;;;5055015;28;20180;-78
2023/08/25 03:34:24;;;;;;;37.87;34.33;;;;;;;;;;5037450;28;20207;-81
2023/08/25 03:36:50;;;;;;;38.20;34.40;;;;;;;;;;5054026;28;20184;-81
2023/08/25 03:39:16;;;;;;;36.73;33.13;;;;;;;;;;5053995;28;20207;-82
2023/08/25 03:41:42;;;;;;;35.70;32.23;;;;;;;;;;5053708;28;20175;-82
2023/08/25 03:44:08;;;;;;;36.20;32.73;;;;;;;;;;5037525;28;20202;-82
2023/08/25 03:46:34;;;;;;;35.97;32.50;;;;;;;;;;5053864;28;20184;-82
2023/08/25 03:49:00;;;;;;;35.97;32.47;;;;;;;;;;5037027;28;20215;-82
2023/08/25 03:51:26;;;;;;;35.57;32.27;;;;;;;;;;5054803;28;20184;-76
2023/08/25 03:53:52;;;;;;;37.57;33.93;;;;;;;;;;5053519;28;20226;-76
2023/08/25 03:56:18;;;;;;;37.40;33.63;;;;;;;;;;5053728;28;20188;-76
2023/08/25 03:58:45;;;;;;;37.77;34.03;;;;;;;;;;5053205;28;20240;-76
2023/08/25 04:01:11;;;;;;;37.43;33.70;;;;;;;;;;5054553;28;20180;-76
2023/08/25 04:03:37;;;;;;;36.93;33.20;;;;;;;;;;5053491;28;20184;-76
2023/08/25 04:06:03;;;;;;;37.10;33.57;;;;;;;;;;5036781;28;20187;-77
2023/08/25 04:08:29;;;;;;;36.80;33.13;;;;;;;;;;5036758;28;20251;-77
2023/08/25 04:10:55;;;;;;;39.00;35.30;;;;;;;;;;5053377;28;20199;-76
2023/08/25 04:13:21;;;;;;;36.57;32.87;;;;;;;;;;5053305;28;20179;-77
2023/08/25 04:15:57;;;;;;;36.87;33.13;;;;;;;;;;5036563;28;20188;-76
2023/08/25 04:18:24;;;;;;;38.80;34.90;;;;;;;;;;5037128;28;20281;-77
2023/08/25 04:20:50;;;;;;;38.97;35.00;;;;;;;;;;5054317;28;20254;-77
2023/08/25 04:23:16;;;;;;;39.03;34.97;;;;;;;;;;5036519;28;20207;-76
2023/08/25 04:25:42;;;;;;;38.47;34.47;;;;;;;;;;5036629;28;20218;-79
2023/08/25 04:28:08;;;;;;;39.07;34.97;;;;;;;;;;5053010;28;20180;-79
2023/08/25 04:30:34;;;;;;;37.67;34.07;;;;;;;;;;5036470;28;20222;-79
2023/08/25 04:33:00;;;;;;;37.57;34.07;;;;;;;;;;5052870;28;20206;-79
2023/08/25 04:35:26;;;;;;;37.37;33.40;;;;;;;;;;5054059;28;20197;-78
2023/08/25 04:37:52;;;;;;;37.47;33.53;;;;;;;;;;5053742;28;20222;-78
2023/08/25 04:40:19;;;;;;;35.50;31.73;;;;;;;;;;5036309;28;20187;-79
2023/08/25 04:42:45;;;;;;;37.03;33.50;;;;;;;;;;5052725;28;20207;-79
2023/08/25 04:45:11;;;;;;;36.87;33.33;;;;;;;;;;5052741;28;20176;-79
2023/08/25 04:47:38;;;;;;;36.07;32.67;;;;;;;;;;5036340;28;20188;-78
2023/08/25 04:50:04;;;;;;;35.13;31.73;;;;;;;;;;5052797;28;20201;-79
2023/08/25 04:52:31;;;;;;;38.57;34.67;;;;;;;;;;5052648;28;20175;-79
2023/08/25 04:54:57;;;;;;;36.53;32.93;;;;;;;;;;5052770;28;20188;-78
2023/08/25 04:57:23;;;;;;;37.20;33.37;;;;;;;;;;5052392;28;20183;-79
2023/08/25 04:59:49;;;;;;;36.33;32.67;;;;;;;;;;5052748;28;20231;-76
2023/08/25 05:02:17;;;;;;;39.70;34.20;;;;;;;;;;5053649;28;20172;-76
2023/08/25 05:04:43;;;;;;;39.70;35.47;;;;;;;;;;5036377;28;20184;-76
2023/08/25 05:07:09;;;;;;;39.67;35.63;;;;;;;;;;5052387;28;20202;-76
2023/08/25 05:09:35;;;;;;;39.70;35.53;;;;;;;;;;5052474;28;20179;-76
2023/08/25 05:12:01;;;;;;;41.07;35.27;;;;;;;;;;5036009;28;20180;-76
2023/08/25 05:14:27;;;;;;;39.03;35.20;;;;;;;;;;5052648;28;20184;-78
2023/08/25 05:16:53;;;;;;;38.67;34.80;;;;;;;;;;5036056;28;20234;-78
2023/08/25 05:19:20;;;;;;;39.53;35.63;;;;;;;;;;5035932;28;20222;-78
2023/08/25 05:21:46;;;;;;;42.03;37.90;;;;;;;;;;5052486;28;20173;-79
2023/08/25 05:24:19;;;;;;;44.17;39.27;;;;;;;;;;5052663;28;20180;-79
2023/08/25 05:26:52;;;;;;;42.70;38.23;;;;;;;;;;5052578;28;20240;-79
2023/08/25 05:29:22;;;;;;;42.33;38.10;;;;;;;;;;5052511;28;20176;-79
2023/08/25 05:31:48;;;;;;;43.10;38.40;;;;;;;;;;5035947;28;20183;-76
2023/08/25 05:34:15;;;;;;;41.77;37.33;;;;;;;;;;5053270;28;20180;-76
2023/08/25 05:36:41;;;;;;;42.93;38.47;;;;;;;;;;5053360;28;20176;-75
2023/08/25 05:39:07;;;;;;;44.17;39.43;;;;;;;;;;5052070;28;20212;-75
2023/08/25 05:41:33;;;;;;;45.20;40.50;;;;;;;;;;5053404;28;20173;-76
2023/08/25 05:43:59;;;;;;;46.97;42.07;;;;;;;;;;5052444;28;20252;-75
2023/08/25 05:46:25;;;;;;;46.27;41.47;;;;;;;;;;5039117;28;20234;-76
2023/08/25 05:48:51;;;;;;;47.67;42.57;;;;;;;;;;5057048;28;20176;-76
2023/08/25 05:51:17;;;;;;;47.10;41.97;;;;;;;;;;5039347;28;20218;-77
2023/08/25 05:53:44;;;;;;;46.27;41.33;;;;;;;;;;5055782;28;20208;-76
2023/08/25 05:56:10;;;;;;;43.37;38.87;;;;;;;;;;5039361;28;20184;-76
2023/08/25 05:58:36;;;;;;;43.70;39.27;;;;;;;;;;5055530;28;20316;-76
2023/08/25 06:01:02;;;;;;;44.03;39.50;;;;;;;;;;5055707;28;20195;-76
2023/08/25 06:03:28;;;;;;;43.27;39.07;;;;;;;;;;5039104;28;20180;-76
2023/08/25 06:05:54;;;;;;;41.10;37.27;;;;;;;;;;5055829;28;20180;-76
2023/08/25 06:08:20;;;;;;;42.77;38.27;;;;;;;;;;5039060;28;20253;-77
2023/08/25 06:10:47;;;;;;;40.87;36.77;;;;;;;;;;5039320;28;20188;-77
2023/08/25 06:13:13;;;;;;;42.53;38.13;;;;;;;;;;5055271;28;20233;-76
2023/08/25 06:15:39;;;;;;;41.53;37.43;;;;;;;;;;5055246;28;20211;-77
2023/08/25 06:18:06;;;;;;;41.60;37.30;;;;;;;;;;5055242;28;20211;-77
2023/08/25 06:20:32;;;;;;;41.30;37.10;;;;;;;;;;5038949;28;20271;-77
2023/08/25 06:22:58;;;;;;;43.27;38.63;;;;;;;;;;5055167;28;20187;-77
2023/08/25 06:25:24;;;;;;;48.10;39.17;;;;;;;;;;5055563;28;20184;-77
2023/08/25 06:27:51;;;;;;;43.40;38.70;;;;;;;;;;5055371;28;20187;-77
2023/08/25 06:30:17;;;;;;;43.27;38.80;;;;;;;;;;5055142;28;20238;-77
2023/08/25 06:32:44;;;;;;;42.90;38.77;;;;;;;;;;5056443;28;20203;-77
2023/08/25 06:35:13;;;;;;;44.80;40.30;;;;;;;;;;5055151;28;20176;-77
2023/08/25 06:37:39;;;;;;;43.03;38.63;;;;;;;;;;5055255;28;20202;-77
2023/08/25 06:40:07;;;;;;;43.53;39.03;;;;;;;;;;5055168;28;20175;-76
2023/08/25 06:42:33;;;;;;;43.63;39.23;;;;;;;;;;5038668;28;20233;-76
2023/08/25 06:44:59;;;;;;;44.00;39.47;;;;;;;;;;5054818;28;20179;-76
2023/08/25 06:47:27;;;;;;;45.73;40.97;;;;;;;;;;5038321;28;20175;-76
2023/08/25 06:49:53;;;;;;;45.97;41.17;;;;;;;;;;5054976;28;20172;-76
2023/08/25 06:52:19;;;;;;;44.97;40.10;;;;;;;;;;5054723;28;20176;-76
2023/08/25 06:54:45;;;;;;;46.10;40.67;;;;;;;;;;5038330;28;20233;-76
2023/08/25 06:57:11;;;;;;;48.13;41.57;;;;;;;;;;5054586;28;20175;-76
2023/08/25 06:59:37;;;;;;;47.37;41.10;;;;;;;;;;5038083;28;20236;-76
2023/08/25 07:02:03;;;;;;;47.30;40.97;;;;;;;;;;5054591;28;20177;-76
2023/08/25 07:04:30;;;;;;;46.13;41.10;;;;;;;;;;5054557;28;20172;-76
2023/08/25 07:06:56;;;;;;;47.53;41.43;;;;;;;;;;5055677;28;20177;-76
2023/08/25 07:09:22;;;;;;;49.33;42.27;;;;;;;;;;5055600;28;20353;-76
2023/08/25 07:11:48;;;;;;;49.77;43.30;;;;;;;;;;5037842;28;20196;-81
2023/08/25 07:14:14;;;;;;;51.87;42.63;;;;;;;;;;5037911;28;20180;-82
2023/08/25 07:16:40;;;;;;;52.37;45.57;;;;;;;;;;5038301;28;20233;-82
2023/08/25 07:19:06;;;;;;;53.27;45.77;;;;;;;;;;5054297;28;20270;-82
2023/08/25 07:21:32;;;;;;;49.60;44.27;;;;;;;;;;5054431;28;20237;-82
2023/08/25 07:23:58;;;;;;;53.73;46.33;;;;;;;;;;5037695;28;20183;-82
2023/08/25 07:26:25;;;;;;;54.50;45.77;;;;;;;;;;5054299;28;20176;-82
2023/08/25 07:28:52;;;;;;;52.40;44.90;;;;;;;;;;5055258;28;20184;-77
2023/08/25 07:31:18;;;;;;;48.03;42.97;;;;;;;;;;5054035;28;20211;-77
2023/08/25 07:33:44;;;;;;;47.20;42.10;;;;;;;;;;5054107;28;20208;-77
2023/08/25 07:36:10;;;;;;;44.67;39.87;;;;;;;;;;5054162;28;20211;-77
2023/08/25 07:38:36;;;;;;;44.93;40.07;;;;;;;;;;5053795;28;20211;-77
2023/08/25 07:41:02;;;;;;;43.40;38.63;;;;;;;;;;5037201;28;20198;-77
2023/08/25 07:43:28;;;;;;;43.10;38.67;;;;;;;;;;5037339;28;20187;-76
2023/08/25 07:45:54;;;;;;;42.80;38.23;;;;;;;;;;5053937;28;20507;-77
2023/08/25 07:48:21;;;;;;;43.03;38.40;;;;;;;;;;5037356;28;20188;-77
2023/08/25 07:50:48;;;;;;;41.63;37.20;;;;;;;;;;5053780;28;20176;-77
2023/08/25 07:53:14;;;;;;;43.73;39.13;;;;;;;;;;5054654;28;20313;-76
2023/08/25 07:55:40;;;;;;;44.50;38.37;;;;;;;;;;5053524;28;20176;-77
2023/08/25 07:58:07;;;;;;;44.03;39.40;;;;;;;;;;5047442;22;20232;-76
2023/08/25 08:00:33;;;;;;;43.43;38.83;;;;;;;;;;5033484;28;20183;-76
2023/08/25 08:02:59;;;;;;;43.03;38.43;;;;;;;;;;5017281;28;20180;-82
2023/08/25 08:05:26;;;;;;;43.20;38.80;;;;;;;;;;5017138;28;20192;-82
2023/08/25 08:07:52;;;;;;;42.27;37.67;;;;;;;;;;5033111;28;20180;-82
2023/08/25 08:10:19;;;;;;;44.90;40.10;;;;;;;;;;5033365;28;20181;-82
2023/08/25 08:12:45;;;;;;;45.50;40.87;;;;;;;;;;5033399;28;20267;-82
2023/08/25 08:15:12;;;;;;;46.57;41.87;;;;;;;;;;5033324;28;20172;-82
2023/08/25 08:17:39;;;;;;;48.13;43.03;;;;;;;;;;5017075;28;20180;-82
2023/08/25 08:20:06;;;;;;;50.90;44.47;;;;;;;;;;5034555;28;20259;-77
2023/08/25 08:22:33;;;;;;;49.33;44.23;;;;;;;;;;5016999;28;20208;-77
2023/08/25 08:24:59;;;;;;;49.47;44.47;;;;;;;;;;5033269;28;20184;-76
2023/08/25 08:27:25;;;;;;;50.17;44.87;;;;;;;;;;5033189;28;20177;-76
2023/08/25 08:29:51;;;;;;;49.87;44.57;;;;;;;;;;5016987;28;20185;-83
2023/08/25 08:32:18;;;;;;;51.37;45.23;;;;;;;;;;5016997;28;20280;-83
2023/08/25 08:34:44;;;;;;;51.73;44.40;;;;;;;;;;5033152;28;20177;-76
2023/08/25 08:37:10;;;;;;;53.20;44.43;;;;;;;;;;5016570;28;20189;-76
2023/08/25 08:39:39;;;;;;;54.27;45.43;;;;;;;;;;5016483;28;20204;-76
2023/08/25 08:42:08;;;;;;;57.20;46.50;;;;;;;;;;5032719;28;20190;-76
2023/08/25 08:44:35;;;;;;;57.30;46.27;;;;;;;;;;5016725;28;20180;-76
2023/08/25 08:47:03;;;;;;;49.73;43.23;;;;;;;;;;5032717;28;20176;-76
2023/08/25 08:49:29;;;;;;;56.00;45.53;;;;;;;;;;5016542;28;20184;-77
2023/08/25 08:51:56;;;;;;;58.20;46.63;;;;;;;;;;5032734;28;20188;-79
2023/08/25 08:54:25;;;;;;;58.47;46.93;;;;;;;;;;5016721;28;20189;-79
2023/08/25 08:56:51;;;;;;;47.17;39.47;;;;;;;;;;5032755;28;20225;-77
2023/08/25 08:59:17;;;;;;;42.87;37.20;;;;;;;;;;5032550;28;20217;-77
2023/08/25 09:01:43;;;;;;;39.67;35.20;;;;;;;;;;5016199;28;20185;-77
2023/08/25 09:04:09;;;;;;;36.73;32.83;;;;;;;;;;5032883;28;20177;-79
2023/08/25 09:06:37;;;;;;;37.50;32.70;;;;;;;;;;5016273;28;20244;-79
2023/08/25 09:09:05;;;;;;;34.93;31.20;;;;;;;;;;5032615;28;20232;-77
2023/08/25 09:11:32;;;;;;;36.13;31.33;;;;;;;;;;5032471;28;20227;-77
2023/08/25 09:14:03;;;;;;;36.27;32.30;;;;;;;;;;5032652;28;20173;-77
2023/08/25 09:16:30;;;;;;;35.03;30.90;;;;;;;;;;5017013;28;20248;-77
2023/08/25 09:18:59;;;;;;;35.50;31.67;;;;;;;;;;5015916;28;20253;-77
2023/08/25 09:21:25;;;;;;;35.57;31.67;;;;;;;;;;5036142;28;20177;-77
2023/08/25 09:24:02;;;;;;;37.07;32.07;;;;;;;;;;5036563;28;20177;-77
2023/08/25 09:26:30;;;;;;;32.43;29.03;;;;;;;;;;5036634;28;20187;-77
2023/08/25 09:28:57;;;;;;;31.10;28.00;;;;;;;;;;5036397;28;20272;-77
2023/08/25 09:31:24;;;;;;;28.27;25.37;;;;;;;;;;5036407;28;20185;-77
2023/08/25 09:33:51;;;;;;;26.43;23.63;;;;;;;;;;5037464;28;20208;-77
2023/08/25 09:36:18;;;;;;;26.57;23.77;;;;;;;;;;5037457;28;20173;-77
2023/08/25 09:38:44;;;;;;;27.20;24.47;;;;;;;;;;5036223;28;20212;-77
2023/08/25 09:41:11;;;;;;;26.77;23.77;;;;;;;;;;5036599;28;20177;-76
2023/08/25 09:43:39;;;;;;;26.63;23.80;;;;;;;;;;5037188;28;20169;-77
2023/08/25 09:46:08;;;;;;;25.33;21.80;;;;;;;;;;5036087;28;20177;-77
2023/08/25 09:48:35;;;;;;;23.30;20.90;;;;;;;;;;5036024;28;20207;-77
2023/08/25 09:51:02;;;;;;;23.83;21.27;;;;;;;;;;5035963;28;20315;-77
2023/08/25 09:53:33;;;;;;;21.73;19.53;;;;;;;;;;5036134;28;20192;-77
2023/08/25 09:56:06;;;;;;;18.13;16.33;;;;;;;;;;5035838;28;20188;-77
2023/08/25 09:58:32;;;;;;;17.03;15.43;;;;;;;;;;5035547;28;20240;-77
2023/08/25 10:00:58;;;;;;;15.93;14.33;;;;;;;;;;5019437;28;20270;-77
2023/08/25 10:03:25;;;;;;;16.30;14.80;;;;;;;;;;5036043;28;20196;-77
2023/08/25 10:05:51;;;;;;;15.27;13.70;;;;;;;;;;5035640;28;20264;-77
2023/08/25 10:08:17;;;;;;;15.17;13.80;;;;;;;;;;5019304;28;20199;-77
2023/08/25 10:10:44;;;;;;;15.40;13.93;;;;;;;;;;5036756;28;20181;-77
2023/08/25 10:13:14;;;;;;;15.00;13.50;;;;;;;;;;5036909;28;20180;-82
2023/08/25 10:15:41;;;;;;;13.77;12.57;;;;;;;;;;5036209;28;20191;-82
2023/08/25 10:18:08;;;;;;;13.17;11.97;;;;;;;;;;5036840;28;20208;-81
2023/08/25 10:20:35;;;;;;;13.47;12.20;;;;;;;;;;5036496;28;20185;-82
2023/08/25 10:23:04;;;;;;;13.60;12.27;;;;;;;;;;5019479;28;20295;-81
2023/08/25 10:25:31;;;;;;;13.83;12.63;;;;;;;;;;5019391;28;20173;-76
2023/08/25 10:27:58;;;;;;;22.90;15.30;;;;;;;;;;5035265;28;20203;-77
2023/08/25 10:30:24;;;;;;;43.60;20.37;;;;;;;;;;5018394;28;20184;-76
2023/08/25 10:32:50;;;;;;;20.93;18.70;;;;;;;;;;5018904;28;20181;-76
2023/08/25 10:35:16;;;;;;;16.17;14.67;;;;;;;;;;5035189;28;20177;-76
2023/08/25 10:37:42;;;;;;;17.93;16.27;;;;;;;;;;5034983;28;20267;-76
2023/08/25 10:40:10;;;;;;;14.33;13.00;;;;;;;;;;5018781;28;20269;-76
2023/08/25 10:42:36;;;;;;;12.17;11.17;;;;;;;;;;5035101;28;20184;-79
2023/08/25 10:45:02;;;;;;;12.60;11.40;;;;;;;;;;5035251;28;20267;-79
2023/08/25 10:47:28;;;;;;;10.43;9.43;;;;;;;;;;5034941;28;20275;-76
2023/08/25 10:49:55;;;;;;;7.57;6.73;;;;;;;;;;5051967;28;20187;-81
2023/08/25 10:52:22;;;;;;;8.23;7.53;;;;;;;;;;5034971;28;20185;-82
2023/08/25 10:54:48;;;;;;;8.40;7.60;;;;;;;;;;5035876;28;20177;-82
2023/08/25 10:57:29;;;;;;;8.37;7.67;;;;;;;;;;5034733;28;20224;-82
2023/08/25 10:59:56;;;;;;;8.53;7.80;;;;;;;;;;5051329;28;20212;-82
2023/08/25 11:02:38;;;;;;;8.97;8.27;;;;;;;;;;5051436;28;20181;-82
2023/08/25 11:05:23;;;;;;;9.60;8.80;;;;;;;;;;5051112;28;20180;-77
2023/08/25 11:07:49;;;;;;;10.55;9.65;;;;;;;;;;5051027;28;20173;-78
2023/08/25 11:10:15;;;;;;;10.67;9.77;;;;;;;;;;5034731;28;20184;-77
2023/08/25 11:12:41;;;;;;;11.77;10.53;;;;;;;;;;5034452;28;20178;-77
2023/08/25 11:15:08;;;;;;;12.07;11.17;;;;;;;;;;5018288;28;20192;-77
2023/08/25 11:17:35;;;;;;;12.43;11.53;;;;;;;;;;5017946;28;20192;-77
2023/08/25 11:20:01;;;;;;;13.87;12.67;;;;;;;;;;5034274;28;20204;-77
2023/08/25 11:22:27;;;;;;;15.27;13.80;;;;;;;;;;5034554;28;20267;-81
2023/08/25 11:24:53;;;;;;;14.90;13.77;;;;;;;;;;5018194;28;20276;-81
2023/08/25 11:27:22;;;;;;;15.33;13.93;;;;;;;;;;5035313;28;20183;-81
2023/08/25 11:29:49;;;;;;;15.83;14.50;;;;;;;;;;5034285;28;20187;-81
2023/08/25 11:32:15;;;;;;;16.33;14.83;;;;;;;;;;5034028;28;20185;-81
2023/08/25 11:34:42;;;;;;;17.50;16.00;;;;;;;;;;5017785;28;20185;-81
2023/08/25 11:37:13;;;;;;;16.90;15.47;;;;;;;;;;5034113;28;20177;-81
2023/08/25 11:39:45;;;;;;;17.87;16.37;;;;;;;;;;5033959;28;20208;-83
2023/08/25 11:42:12;;;;;;;19.00;17.30;;;;;;;;;;5033296;28;20173;-83
2023/08/25 11:44:41;;;;;;;19.93;18.03;;;;;;;;;;5034833;28;20169;-83
2023/08/25 11:47:07;;;;;;;20.20;18.40;;;;;;;;;;5017611;28;20234;-83
2023/08/25 11:49:33;;;;;;;19.97;18.27;;;;;;;;;;5034116;28;20185;-83
2023/08/25 11:52:00;;;;;;;20.90;18.90;;;;;;;;;;5017257;28;20192;-83
2023/08/25 11:54:26;;;;;;;20.63;18.93;;;;;;;;;;5034181;28;20184;-78
2023/08/25 11:56:53;;;;;;;22.53;20.27;;;;;;;;;;5017093;28;20331;-78
2023/08/25 11:59:19;;;;;;;20.77;19.03;;;;;;;;;;5033466;28;20212;-78
2023/08/25 12:01:51;;;;;;;22.33;20.40;;;;;;;;;;5017331;28;20248;-78
2023/08/25 12:04:24;;;;;;;22.23;19.93;;;;;;;;;;5017294;28;20307;-78
2023/08/25 12:06:51;;;;;;;22.57;20.57;;;;;;;;;;5033542;28;20176;-78
2023/08/25 12:09:18;;;;;;;23.07;21.07;;;;;;;;;;5033379;28;20195;-78
2023/08/25 12:11:44;;;;;;;23.83;21.80;;;;;;;;;;5033650;28;20180;-83
2023/08/25 12:14:23;;;;;;;25.27;22.93;;;;;;;;;;5016974;28;20248;-77
2023/08/25 12:16:49;;;;;;;25.87;23.47;;;;;;;;;;5034417;28;20176;-77
2023/08/25 12:19:16;;;;;;;26.47;24.07;;;;;;;;;;5033328;28;20240;-77
2023/08/25 12:21:42;;;;;;;27.20;24.67;;;;;;;;;;5033338;28;20183;-76
2023/08/25 12:24:08;;;;;;;26.43;24.23;;;;;;;;;;5016826;28;20215;-77
2023/08/25 12:26:34;;;;;;;27.27;24.80;;;;;;;;;;5034226;28;20168;-77
2023/08/25 12:29:00;;;;;;;27.17;24.87;;;;;;;;;;5016829;28;20199;-82
2023/08/25 12:31:26;;;;;;;26.90;24.60;;;;;;;;;;5016822;28;20196;-83
2023/08/25 12:33:52;;;;;;;26.37;24.07;;;;;;;;;;5016809;28;20185;-82
2023/08/25 12:36:18;;;;;;;26.63;24.27;;;;;;;;;;5016521;28;20191;-82
2023/08/25 12:38:44;;;;;;;25.33;23.23;;;;;;;;;;5016770;28;20254;-82
2023/08/25 12:41:10;;;;;;;24.43;22.23;;;;;;;;;;5016520;28;20184;-82
2023/08/25 12:43:37;;;;;;;26.13;23.83;;;;;;;;;;5017018;28;20208;-82
2023/08/25 12:46:03;;;;;;;26.33;24.03;;;;;;;;;;5032944;28;20272;-80
2023/08/25 12:48:31;;;;;;;27.50;25.07;;;;;;;;;;5016605;28;20985;-80
2023/08/25 12:50:57;;;;;;;26.60;24.33;;;;;;;;;;5016906;28;20184;-80
2023/08/25 12:53:23;;;;;;;26.20;23.87;;;;;;;;;;5033695;28;20184;-80
2023/08/25 12:55:49;;;;;;;25.50;23.37;;;;;;;;;;5016350;28;20185;-80
2023/08/25 12:58:16;;;;;;;27.60;25.40;;;;;;;;;;5015690;28;20449;-80
2023/08/25 13:00:42;;;;;;;27.42;25.30;;;;;;;;;;5015917;28;20405;-81
2023/08/25 13:03:08;;;;;;;28.70;26.40;;;;;;;;;;5032113;28;20432;-82
2023/08/25 13:05:35;;;;;;;26.58;24.48;;;;;;;;;;5015526;28;20401;-81
2023/08/25 13:08:01;;;;;;;28.30;26.02;;;;;;;;;;5015568;28;20478;-82
2023/08/25 13:10:27;;;;;;;24.98;22.92;;;;;;;;;;5032920;28;20183;-81
2023/08/25 13:12:53;;;;;;;26.17;24.25;;;;;;;;;;5032072;28;20421;-82
2023/08/25 13:15:19;;;;;;;27.48;25.38;;;;;;;;;;5031976;28;20559;-82
2023/08/25 13:17:45;;;;;;;27.10;24.90;;;;;;;;;;5016276;28;20422;-84
2023/08/25 13:20:12;;;;;;;25.73;23.63;;;;;;;;;;5016546;28;20250;-85
2023/08/25 13:22:38;;;;;;;24.65;22.65;;;;;;;;;;5032880;28;20263;-85
2023/08/25 13:25:05;;;;;;;27.20;25.10;;;;;;;;;;5032418;28;20436;-84
2023/08/25 13:27:31;;;;;;;27.13;24.98;;;;;;;;;;5032590;28;20401;-84
2023/08/25 13:29:57;;;;;;;26.98;24.98;;;;;;;;;;5015458;28;20417;-85
2023/08/25 13:32:23;;;;;;;27.37;25.13;;;;;;;;;;5015959;28;20444;-85
2023/08/25 13:34:49;;;;;;;26.88;24.88;;;;;;;;;;5031646;28;20438;-79
2023/08/25 13:37:16;;;;;;;27.17;25.10;;;;;;;;;;5015084;28;20436;-78
2023/08/25 13:39:43;;;;;;;27.83;25.52;;;;;;;;;;5015579;28;20437;-78
2023/08/25 13:42:09;;;;;;;28.13;25.98;;;;;;;;;;5015106;28;20460;-78
2023/08/25 13:44:38;;;;;;;26.80;24.77;;;;;;;;;;5015132;28;20409;-79
2023/08/25 13:47:04;;;;;;;26.90;24.70;;;;;;;;;;5015416;28;20463;-78
2023/08/25 13:49:30;;;;;;;27.23;25.02;;;;;;;;;;5015121;28;20418;-78
2023/08/25 13:51:56;;;;;;;27.08;24.90;;;;;;;;;;5031447;28;20425;-79
2023/08/25 13:54:22;;;;;;;27.50;25.35;;;;;;;;;;5015344;28;20480;-79
2023/08/25 13:56:48;;;;;;;27.60;25.40;;;;;;;;;;5014728;28;20459;-78
2023/08/25 13:59:14;;;;;;;27.90;25.88;;;;;;;;;;5014840;28;20536;-79
2023/08/25 14:01:40;;;;;;;25.98;23.92;;;;;;;;;;5031360;28;20417;-79
2023/08/25 14:04:06;;;;;;;25.67;23.58;;;;;;;;;;5014999;28;20409;-79
2023/08/25 14:06:32;;;;;;;24.30;22.45;;;;;;;;;;5017059;28;20443;-79
2023/08/25 14:08:59;;;;;;;23.30;21.42;;;;;;;;;;5018639;28;20452;-85
2023/08/25 14:11:25;;;;;;;24.00;22.00;;;;;;;;;;5018714;28;20410;-85
2023/08/25 14:13:51;;;;;;;23.50;21.60;;;;;;;;;;5034840;28;20493;-85
2023/08/25 14:16:18;;;;;;;23.73;21.83;;;;;;;;;;5018443;28;20421;-85